createdAt,value
2017-09-25T00:00:04.421Z,99.99
2017-09-25T00:01:02.306Z,99.99
2017-09-25T00:02:02.612Z,99.99
2017-09-25T00:03:02.624Z,99.99
2017-09-25T00:04:02.605Z,99.99
2017-09-25T00:05:02.608Z,99.99
2017-09-25T00:06:02.608Z,99.99
2017-09-25T00:07:02.598Z,99.99
2017-09-25T00:08:02.599Z,99.99
2017-09-25T00:09:02.595Z,99.99
2017-09-25T00:10:02.591Z,99.99
2017-09-25T00:11:02.598Z,99.99
2017-09-25T00:12:02.594Z,99.99
2017-09-25T00:13:02.586Z,99.99
2017-09-25T00:14:02.285Z,99.99
2017-09-25T00:15:02.583Z,99.99
2017-09-25T00:16:02.582Z,99.99
2017-09-25T00:17:02.279Z,99.99
2017-09-25T00:18:02.579Z,99.99
2017-09-25T00:19:02.578Z,99.99
2017-09-25T00:20:02.267Z,99.99
2017-09-25T00:21:02.581Z,99.99
2017-09-25T00:22:02.267Z,99.99
2017-09-25T00:23:02.564Z,99.99
2017-09-25T00:24:02.267Z,99.99
2017-09-25T00:25:02.564Z,99.99
2017-09-25T00:26:02.564Z,99.99
2017-09-25T00:27:02.562Z,99.99
2017-09-25T00:28:02.562Z,99.99
2017-09-25T00:29:02.565Z,99.99
2017-09-25T00:30:04.710Z,99.99
2017-09-25T00:31:02.247Z,99.99
2017-09-25T00:32:02.545Z,99.99
2017-09-25T00:33:02.542Z,99.99
2017-09-25T00:34:02.549Z,99.99
2017-09-25T00:35:02.229Z,99.99
2017-09-25T00:36:02.535Z,99.99
2017-09-25T00:37:02.539Z,99.99
2017-09-25T00:38:02.530Z,99.99
2017-09-25T00:39:02.527Z,99.99
2017-09-25T00:40:02.527Z,99.99
2017-09-25T00:41:02.523Z,99.99
2017-09-25T00:42:02.523Z,99.99
2017-09-25T00:43:02.521Z,99.99
2017-09-25T00:44:02.518Z,99.99
2017-09-25T00:45:02.212Z,99.99
2017-09-25T00:46:02.209Z,99.99
2017-09-25T00:47:02.508Z,99.99
2017-09-25T00:48:02.198Z,99.99
2017-09-25T00:49:02.507Z,99.99
2017-09-25T00:50:02.503Z,99.99
2017-09-25T00:51:02.500Z,99.99
2017-09-25T00:52:02.496Z,99.99
2017-09-25T00:53:02.499Z,99.99
2017-09-25T00:54:02.200Z,99.99
2017-09-25T00:55:02.492Z,99.99
2017-09-25T00:56:02.179Z,99.99
2017-09-25T00:57:02.175Z,99.99
2017-09-25T00:58:02.179Z,99.99
2017-09-25T00:59:02.482Z,99.99
2017-09-25T01:00:02.480Z,99.99
2017-09-25T01:01:02.182Z,99.99
2017-09-25T01:02:02.164Z,99.99
2017-09-25T01:03:02.164Z,99.99
2017-09-25T01:04:02.468Z,99.99
2017-09-25T01:05:02.158Z,99.99
2017-09-25T01:06:02.154Z,99.99
2017-09-25T01:07:02.467Z,99.99
2017-09-25T01:08:02.457Z,99.99
2017-09-25T01:09:02.456Z,99.99
2017-09-25T01:10:02.142Z,99.99
2017-09-25T01:11:02.145Z,99.99
2017-09-25T01:12:02.142Z,99.99
2017-09-25T01:13:02.445Z,99.99
2017-09-25T01:14:02.449Z,99.99
2017-09-25T01:15:02.446Z,99.99
2017-09-25T01:16:02.438Z,99.99
2017-09-25T01:17:02.436Z,99.99
2017-09-25T01:18:02.123Z,99.99
2017-09-25T01:19:02.435Z,99.99
2017-09-25T01:20:02.119Z,99.99
2017-09-25T01:21:02.430Z,99.99
2017-09-25T01:22:02.112Z,99.99
2017-09-25T01:23:02.424Z,99.99
2017-09-25T01:24:02.109Z,99.99
2017-09-25T01:25:02.419Z,99.99
2017-09-25T01:26:02.409Z,99.99
2017-09-25T01:27:02.421Z,99.99
2017-09-25T01:28:02.413Z,99.99
2017-09-25T01:29:02.414Z,99.99
2017-09-25T01:30:02.416Z,99.99
2017-09-25T01:31:02.701Z,99.99
2017-09-25T01:32:02.397Z,99.99
2017-09-25T01:33:02.408Z,99.99
2017-09-25T01:34:02.395Z,99.99
2017-09-25T01:35:02.398Z,99.99
2017-09-25T01:36:02.385Z,99.99
2017-09-25T01:37:02.074Z,99.99
2017-09-25T01:38:02.070Z,99.99
2017-09-25T01:39:02.382Z,99.99
2017-09-25T01:40:02.380Z,99.99
2017-09-25T01:41:02.062Z,99.99
2017-09-25T01:42:02.059Z,99.99
2017-09-25T01:43:02.059Z,99.99
2017-09-25T01:44:02.368Z,99.99
2017-09-25T01:45:02.367Z,99.99
2017-09-25T01:46:02.057Z,99.99
2017-09-25T01:47:02.363Z,99.99
2017-09-25T01:48:02.053Z,99.99
2017-09-25T01:49:02.367Z,99.99
2017-09-25T01:50:02.046Z,99.99
2017-09-25T01:51:02.347Z,99.99
2017-09-25T01:52:02.343Z,99.99
2017-09-25T01:53:02.341Z,99.99
2017-09-25T01:54:02.340Z,99.99
2017-09-25T01:55:02.025Z,99.99
2017-09-25T01:56:02.334Z,99.99
2017-09-25T01:57:02.329Z,99.99
2017-09-25T01:58:02.326Z,99.99
2017-09-25T01:59:02.322Z,99.99
2017-09-25T02:00:02.345Z,99.99
2017-09-25T02:01:02.016Z,99.99
2017-09-25T02:02:02.016Z,99.99
2017-09-25T02:03:02.316Z,99.99
2017-09-25T02:04:02.314Z,99.99
2017-09-25T02:05:02.318Z,99.99
2017-09-25T02:06:02.309Z,99.99
2017-09-25T02:07:02.357Z,99.99
2017-09-25T02:08:01.989Z,99.99
2017-09-25T02:09:02.298Z,99.99
2017-09-25T02:10:02.294Z,99.99
2017-09-25T02:11:02.292Z,99.99
2017-09-25T02:12:02.319Z,99.99
2017-09-25T02:13:01.976Z,99.99
2017-09-25T02:14:02.288Z,99.99
2017-09-25T02:15:02.279Z,99.99
2017-09-25T02:16:02.288Z,99.99
2017-09-25T02:17:02.273Z,99.99
2017-09-25T02:18:01.965Z,99.99
2017-09-25T02:19:02.270Z,99.99
2017-09-25T02:20:02.274Z,99.99
2017-09-25T02:21:01.951Z,99.99
2017-09-25T02:22:01.950Z,99.99
2017-09-25T02:23:01.949Z,99.99
2017-09-25T02:24:01.947Z,99.99
2017-09-25T02:25:02.260Z,99.99
2017-09-25T02:26:02.270Z,99.99
2017-09-25T02:27:01.935Z,99.99
2017-09-25T02:28:02.242Z,99.99
2017-09-25T02:29:01.929Z,99.99
2017-09-25T02:30:02.235Z,99.99
2017-09-25T02:31:02.231Z,99.99
2017-09-25T02:32:02.231Z,99.99
2017-09-25T02:33:01.918Z,99.99
2017-09-25T02:34:01.914Z,99.99
2017-09-25T02:35:02.220Z,99.99
2017-09-25T02:36:02.218Z,99.99
2017-09-25T02:37:02.214Z,99.99
2017-09-25T02:38:01.905Z,99.99
2017-09-25T02:39:01.910Z,99.99
2017-09-25T02:40:02.207Z,99.99
2017-09-25T02:41:02.204Z,99.99
2017-09-25T02:42:02.205Z,99.99
2017-09-25T02:43:02.199Z,99.99
2017-09-25T02:44:02.207Z,99.99
2017-09-25T02:45:02.195Z,99.99
2017-09-25T02:46:01.881Z,99.99
2017-09-25T02:47:02.733Z,99.99
2017-09-25T02:48:02.184Z,99.99
2017-09-25T02:49:02.185Z,99.99
2017-09-25T02:50:02.185Z,99.99
2017-09-25T02:51:02.173Z,99.99
2017-09-25T02:52:02.170Z,99.99
2017-09-25T02:53:02.171Z,99.99
2017-09-25T02:54:02.182Z,99.99
2017-09-25T02:55:01.853Z,99.99
2017-09-25T02:56:01.850Z,99.99
2017-09-25T02:57:02.154Z,99.99
2017-09-25T02:58:01.844Z,99.99
2017-09-25T02:59:02.148Z,99.99
2017-09-25T03:00:02.148Z,99.99
2017-09-25T03:01:01.831Z,99.99
2017-09-25T03:02:03.242Z,99.99
2017-09-25T03:03:02.143Z,99.99
2017-09-25T03:04:02.135Z,99.99
2017-09-25T03:05:02.128Z,99.99
2017-09-25T03:06:02.126Z,99.99
2017-09-25T03:07:02.121Z,99.99
2017-09-25T03:08:01.847Z,99.99
2017-09-25T03:09:01.805Z,99.99
2017-09-25T03:10:01.802Z,99.99
2017-09-25T03:11:01.802Z,99.99
2017-09-25T03:12:01.805Z,99.99
2017-09-25T03:13:01.796Z,99.99
2017-09-25T03:14:02.110Z,99.99
2017-09-25T03:15:02.093Z,99.99
2017-09-25T03:16:02.092Z,99.99
2017-09-25T03:17:02.095Z,99.99
2017-09-25T03:18:02.088Z,99.99
2017-09-25T03:19:01.777Z,99.99
2017-09-25T03:20:01.778Z,99.99
2017-09-25T03:21:01.767Z,99.99
2017-09-25T03:22:02.073Z,99.99
2017-09-25T03:23:02.073Z,99.99
2017-09-25T03:24:01.756Z,99.99
2017-09-25T03:25:02.064Z,99.99
2017-09-25T03:26:01.759Z,99.99
2017-09-25T03:27:01.749Z,99.99
2017-09-25T03:28:02.058Z,99.99
2017-09-25T03:29:02.054Z,99.99
2017-09-25T03:30:01.739Z,99.99
2017-09-25T03:31:02.043Z,99.99
2017-09-25T03:32:02.042Z,99.99
2017-09-25T03:33:01.731Z,99.99
2017-09-25T03:34:02.035Z,99.99
2017-09-25T03:35:01.728Z,99.99
2017-09-25T03:36:01.719Z,99.99
2017-09-25T03:37:02.033Z,99.99
2017-09-25T03:38:02.023Z,99.99
2017-09-25T03:39:02.016Z,99.99
2017-09-25T03:40:02.013Z,99.99
2017-09-25T03:41:02.012Z,99.99
2017-09-25T03:42:02.007Z,99.99
2017-09-25T03:43:02.003Z,99.99
2017-09-25T03:44:01.692Z,99.99
2017-09-25T03:45:01.998Z,99.99
2017-09-25T03:46:01.994Z,99.99
2017-09-25T03:47:01.990Z,99.99
2017-09-25T03:48:01.691Z,99.99
2017-09-25T03:49:01.984Z,99.99
2017-09-25T03:50:01.989Z,99.99
2017-09-25T03:51:01.669Z,99.99
2017-09-25T03:52:01.669Z,99.99
2017-09-25T03:53:01.975Z,99.99
2017-09-25T03:54:01.965Z,99.99
2017-09-25T03:55:01.655Z,99.99
2017-09-25T03:56:01.967Z,99.99
2017-09-25T03:57:01.957Z,99.99
2017-09-25T03:58:01.645Z,99.99
2017-09-25T03:59:01.643Z,99.99
2017-09-25T04:00:01.636Z,99.99
2017-09-25T04:01:01.946Z,99.99
2017-09-25T04:02:01.968Z,99.99
2017-09-25T04:03:03.587Z,99.99
2017-09-25T04:04:01.937Z,99.99
2017-09-25T04:05:01.946Z,99.99
2017-09-25T04:06:01.615Z,99.99
2017-09-25T04:07:01.615Z,99.99
2017-09-25T04:08:01.612Z,99.99
2017-09-25T04:09:01.607Z,99.99
2017-09-25T04:10:01.910Z,99.99
2017-09-25T04:11:01.601Z,99.99
2017-09-25T04:12:01.910Z,99.99
2017-09-25T04:13:01.904Z,99.99
2017-09-25T04:14:01.897Z,99.99
2017-09-25T04:15:01.894Z,99.99
2017-09-25T04:16:01.911Z,99.99
2017-09-25T04:17:01.891Z,99.99
2017-09-25T04:18:05.887Z,99.99
2017-09-25T04:19:01.886Z,99.99
2017-09-25T04:20:01.573Z,99.99
2017-09-25T04:21:01.881Z,99.99
2017-09-25T04:22:01.870Z,99.99
2017-09-25T04:23:01.564Z,99.99
2017-09-25T04:24:01.869Z,99.99
2017-09-25T04:25:01.866Z,99.99
2017-09-25T04:26:01.547Z,99.99
2017-09-25T04:27:01.874Z,99.99
2017-09-25T04:28:01.853Z,99.99
2017-09-25T04:29:01.534Z,99.99
2017-09-25T04:30:01.850Z,99.99
2017-09-25T04:31:01.840Z,99.99
2017-09-25T04:32:01.834Z,99.99
2017-09-25T04:33:01.831Z,99.99
2017-09-25T04:34:01.829Z,99.99
2017-09-25T04:35:01.826Z,99.99
2017-09-25T04:36:01.517Z,99.99
2017-09-25T04:37:01.818Z,99.99
2017-09-25T04:38:01.816Z,99.99
2017-09-25T04:39:01.510Z,99.99
2017-09-25T04:40:01.883Z,99.99
2017-09-25T04:41:01.808Z,99.99
2017-09-25T04:42:01.509Z,99.99
2017-09-25T04:43:01.486Z,99.99
2017-09-25T04:44:01.815Z,99.99
2017-09-25T04:45:01.798Z,99.99
2017-09-25T04:46:01.785Z,99.99
2017-09-25T04:47:01.781Z,99.99
2017-09-25T04:48:01.470Z,99.99
2017-09-25T04:49:01.775Z,99.99
2017-09-25T04:50:01.774Z,99.99
2017-09-25T04:51:01.776Z,99.99
2017-09-25T04:52:01.767Z,99.99
2017-09-25T04:53:01.758Z,99.99
2017-09-25T04:54:01.754Z,99.99
2017-09-25T04:55:01.757Z,99.99
2017-09-25T04:56:01.755Z,99.99
2017-09-25T04:57:01.755Z,99.99
2017-09-25T04:58:01.747Z,99.99
2017-09-25T04:59:01.737Z,99.99
2017-09-25T05:00:01.736Z,99.99
2017-09-25T05:01:01.727Z,99.99
2017-09-25T05:02:01.724Z,99.99
2017-09-25T05:03:01.432Z,99.99
2017-09-25T05:04:04.972Z,99.99
2017-09-25T05:05:01.714Z,99.99
2017-09-25T05:06:01.715Z,99.99
2017-09-25T05:07:01.417Z,99.99
2017-09-25T05:08:01.402Z,99.99
2017-09-25T05:09:01.705Z,99.99
2017-09-25T05:10:01.387Z,99.99
2017-09-25T05:11:01.694Z,99.99
2017-09-25T05:12:01.378Z,99.99
2017-09-25T05:13:01.375Z,99.99
2017-09-25T05:14:01.374Z,99.99
2017-09-25T05:15:01.366Z,99.99
2017-09-25T05:16:01.671Z,99.99
2017-09-25T05:17:01.672Z,99.99
2017-09-25T05:18:01.673Z,99.99
2017-09-25T05:19:01.658Z,99.99
2017-09-25T05:20:01.658Z,99.99
2017-09-25T05:21:01.654Z,99.99
2017-09-25T05:22:01.657Z,99.99
2017-09-25T05:23:01.643Z,99.99
2017-09-25T05:24:01.639Z,99.99
2017-09-25T05:25:01.636Z,99.99
2017-09-25T05:26:01.325Z,99.99
2017-09-25T05:27:01.627Z,99.99
2017-09-25T05:28:01.315Z,99.99
2017-09-25T05:29:01.661Z,99.99
2017-09-25T05:30:01.313Z,99.99
2017-09-25T05:31:01.633Z,99.99
2017-09-25T05:32:01.307Z,99.99
2017-09-25T05:33:01.615Z,99.99
2017-09-25T05:34:01.293Z,99.99
2017-09-25T05:35:01.604Z,99.99
2017-09-25T05:36:01.603Z,99.99
2017-09-25T05:37:01.591Z,99.99
2017-09-25T05:38:01.587Z,99.99
2017-09-25T05:39:01.583Z,99.99
2017-09-25T05:40:01.582Z,99.99
2017-09-25T05:41:01.575Z,99.99
2017-09-25T05:42:01.260Z,99.99
2017-09-25T05:43:01.572Z,99.99
2017-09-25T05:44:01.564Z,99.99
2017-09-25T05:45:01.562Z,99.99
2017-09-25T05:46:01.251Z,99.99
2017-09-25T05:47:01.552Z,99.99
2017-09-25T05:48:01.550Z,99.99
2017-09-25T05:49:01.235Z,99.99
2017-09-25T05:50:01.544Z,99.99
2017-09-25T05:51:01.245Z,99.99
2017-09-25T05:52:01.533Z,99.99
2017-09-25T05:53:01.536Z,99.99
2017-09-25T05:54:01.527Z,99.99
2017-09-25T05:55:01.528Z,99.99
2017-09-25T05:56:01.518Z,99.99
2017-09-25T05:57:01.203Z,99.99
2017-09-25T05:58:01.510Z,99.99
2017-09-25T05:59:01.199Z,99.99
2017-09-25T06:00:01.504Z,99.99
2017-09-25T06:01:01.188Z,99.99
2017-09-25T06:02:01.506Z,99.99
2017-09-25T06:03:01.185Z,99.99
2017-09-25T06:04:01.175Z,99.99
2017-09-25T06:05:01.170Z,99.99
2017-09-25T06:06:01.168Z,99.99
2017-09-25T06:07:01.474Z,99.99
2017-09-25T06:08:01.467Z,99.99
2017-09-25T06:09:01.154Z,99.99
2017-09-25T06:10:01.154Z,99.99
2017-09-25T06:11:01.149Z,99.99
2017-09-25T06:12:01.455Z,99.99
2017-09-25T06:13:01.143Z,99.99
2017-09-25T06:14:01.444Z,99.99
2017-09-25T06:15:01.440Z,99.99
2017-09-25T06:16:01.444Z,99.99
2017-09-25T06:17:01.437Z,99.99
2017-09-25T06:18:01.122Z,99.99
2017-09-25T06:19:01.119Z,99.99
2017-09-25T06:20:01.427Z,99.99
2017-09-25T06:21:01.441Z,99.99
2017-09-25T06:22:01.426Z,99.99
2017-09-25T06:23:01.411Z,99.99
2017-09-25T06:24:01.413Z,99.99
2017-09-25T06:25:01.419Z,99.99
2017-09-25T06:26:01.414Z,99.99
2017-09-25T06:27:01.413Z,99.99
2017-09-25T06:28:01.411Z,99.99
2017-09-25T06:29:01.391Z,99.99
2017-09-25T06:30:01.078Z,99.99
2017-09-25T06:31:01.392Z,99.99
2017-09-25T06:32:01.387Z,99.99
2017-09-25T06:33:01.389Z,99.99
2017-09-25T06:34:01.375Z,99.99
2017-09-25T06:35:01.373Z,99.99
2017-09-25T06:36:01.372Z,99.99
2017-09-25T06:37:01.064Z,99.99
2017-09-25T06:38:01.370Z,99.99
2017-09-25T06:39:01.361Z,99.99
2017-09-25T06:40:01.358Z,99.99
2017-09-25T06:41:01.050Z,99.99
2017-09-25T06:42:01.357Z,99.99
2017-09-25T06:43:01.353Z,99.99
2017-09-25T06:44:01.358Z,99.99
2017-09-25T06:45:01.057Z,99.99
2017-09-25T06:46:01.366Z,99.99
2017-09-25T06:47:01.347Z,99.99
2017-09-25T06:48:01.346Z,99.99
2017-09-25T06:49:01.346Z,99.99
2017-09-25T06:50:01.344Z,99.99
2017-09-25T06:51:01.022Z,99.99
2017-09-25T06:52:01.344Z,99.99
2017-09-25T06:53:01.325Z,99.99
2017-09-25T06:54:01.014Z,99.99
2017-09-25T06:55:01.015Z,99.99
2017-09-25T06:56:01.317Z,99.99
2017-09-25T06:57:01.010Z,99.99
2017-09-25T06:58:01.321Z,99.99
2017-09-25T06:59:01.146Z,99.99
2017-09-25T07:00:01.393Z,99.99
2017-09-25T07:01:01.307Z,99.99
2017-09-25T07:02:01.001Z,99.99
2017-09-25T07:03:00.992Z,99.99
2017-09-25T07:04:01.308Z,99.99
2017-09-25T07:05:01.307Z,99.99
2017-09-25T07:06:01.294Z,99.99
2017-09-25T07:07:01.325Z,99.99
2017-09-25T07:08:01.373Z,99.99
2017-09-25T07:09:01.302Z,99.99
2017-09-25T07:10:00.982Z,99.99
2017-09-25T07:11:01.320Z,99.99
2017-09-25T07:12:01.284Z,99.99
2017-09-25T07:13:00.969Z,99.99
2017-09-25T07:14:01.286Z,99.99
2017-09-25T07:15:01.281Z,99.99
2017-09-25T07:16:01.276Z,99.99
2017-09-25T07:17:01.271Z,99.99
2017-09-25T07:18:01.274Z,99.99
2017-09-25T07:19:00.960Z,99.99
2017-09-25T07:20:01.270Z,99.99
2017-09-25T07:21:01.265Z,99.99
2017-09-25T07:22:01.274Z,99.99
2017-09-25T07:23:01.265Z,99.13
2017-09-25T07:24:01.263Z,99.04
2017-09-25T07:25:00.955Z,98.47
2017-09-25T07:26:01.260Z,98.32
2017-09-25T07:27:00.956Z,97.71
2017-09-25T07:28:01.263Z,98.32
2017-09-25T07:29:01.262Z,98.37
2017-09-25T07:30:00.947Z,98.23
2017-09-25T07:31:01.254Z,98.66
2017-09-25T07:32:01.250Z,97.94
2017-09-25T07:33:01.252Z,96.98
2017-09-25T07:34:01.248Z,98.32
2017-09-25T07:35:01.546Z,97.89
2017-09-25T07:36:01.244Z,98.66
2017-09-25T07:37:01.256Z,98.66
2017-09-25T07:38:00.937Z,98.75
2017-09-25T07:39:01.245Z,98.27
2017-09-25T07:40:01.242Z,97.75
2017-09-25T07:41:01.238Z,98.23
2017-09-25T07:42:01.237Z,97.94
2017-09-25T07:43:01.239Z,96.42
2017-09-25T07:44:00.941Z,96.03
2017-09-25T07:45:01.234Z,96.42
2017-09-25T07:46:01.233Z,96.7
2017-09-25T07:47:01.232Z,97.47
2017-09-25T07:48:01.235Z,96.51
2017-09-25T07:49:01.235Z,97.56
2017-09-25T07:50:06.339Z,98.23
2017-09-25T07:51:00.917Z,97.85
2017-09-25T07:52:00.926Z,96.7
2017-09-25T07:53:01.227Z,93.6
2017-09-25T07:54:01.223Z,92.11
2017-09-25T07:55:01.257Z,91.54
2017-09-25T07:56:01.226Z,89.53
2017-09-25T07:57:01.220Z,90.01
2017-09-25T07:58:01.220Z,90.59
2017-09-25T07:59:01.223Z,90.59
2017-09-25T08:00:00.934Z,91.74
2017-09-25T08:01:01.222Z,92.74
2017-09-25T08:02:01.220Z,92.45
2017-09-25T08:03:00.909Z,92.64
2017-09-25T08:04:01.217Z,94.27
2017-09-25T08:05:01.212Z,94.17
2017-09-25T08:06:01.213Z,95.41
2017-09-25T08:07:00.906Z,93.12
2017-09-25T08:08:01.219Z,91.74
2017-09-25T08:09:00.899Z,91.59
2017-09-25T08:10:00.907Z,92.64
2017-09-25T08:11:00.899Z,93.31
2017-09-25T08:12:01.204Z,93.41
2017-09-25T08:13:00.899Z,93.5
2017-09-25T08:14:01.211Z,93.88
2017-09-25T08:15:01.201Z,93.88
2017-09-25T08:16:01.208Z,93.5
2017-09-25T08:17:00.895Z,94.07
2017-09-25T08:18:01.216Z,92.93
2017-09-25T08:19:00.894Z,93.21
2017-09-25T08:20:01.201Z,92.69
2017-09-25T08:21:01.204Z,92.11
2017-09-25T08:22:01.207Z,91.93
2017-09-25T08:23:01.212Z,91.45
2017-09-25T08:24:00.898Z,90.97
2017-09-25T08:25:01.202Z,91.06
2017-09-25T08:26:01.206Z,91.64
2017-09-25T08:27:01.204Z,91.54
2017-09-25T08:28:01.205Z,91.35
2017-09-25T08:29:01.203Z,91.25
2017-09-25T08:30:00.893Z,92.11
2017-09-25T08:31:01.204Z,90.97
2017-09-25T08:32:01.202Z,90.97
2017-09-25T08:33:01.201Z,90.68
2017-09-25T08:34:00.891Z,90.88
2017-09-25T08:35:01.201Z,90.63
2017-09-25T08:36:01.207Z,90.34
2017-09-25T08:37:00.892Z,89.96
2017-09-25T08:38:00.891Z,89.77
2017-09-25T08:39:01.202Z,89.87
2017-09-25T08:40:01.204Z,90.16
2017-09-25T08:41:01.199Z,89.1
2017-09-25T08:42:01.207Z,89.39
2017-09-25T08:43:01.200Z,89.48
2017-09-25T08:44:01.197Z,89.77
2017-09-25T08:45:01.198Z,90.06
2017-09-25T08:46:00.891Z,90.16
2017-09-25T08:47:01.197Z,90.16
2017-09-25T08:48:01.205Z,89.29
2017-09-25T08:49:01.196Z,89.01
2017-09-25T08:50:01.212Z,88.53
2017-09-25T08:51:01.248Z,88.53
2017-09-25T08:52:01.196Z,89.01
2017-09-25T08:53:01.202Z,89.39
2017-09-25T08:54:01.196Z,88.81
2017-09-25T08:55:01.197Z,89.39
2017-09-25T08:56:00.888Z,88.86
2017-09-25T08:57:01.195Z,89.29
2017-09-25T08:58:01.196Z,89.15
2017-09-25T08:59:01.198Z,88
2017-09-25T09:00:00.891Z,87.71
2017-09-25T09:01:01.196Z,87.33
2017-09-25T09:02:01.195Z,87.43
2017-09-25T09:03:01.197Z,86.66
2017-09-25T09:04:00.889Z,86.08
2017-09-25T09:05:01.198Z,87.33
2017-09-25T09:06:01.339Z,87.33
2017-09-25T09:07:01.198Z,87.14
2017-09-25T09:08:01.198Z,86.08
2017-09-25T09:09:01.197Z,85.8
2017-09-25T09:10:01.202Z,85.46
2017-09-25T09:11:01.201Z,85.65
2017-09-25T09:12:01.199Z,86.32
2017-09-25T09:13:00.890Z,86.41
2017-09-25T09:14:01.018Z,85.46
2017-09-25T09:15:01.457Z,84.41
2017-09-25T09:16:01.201Z,83.78
2017-09-25T09:17:00.894Z,83.3
2017-09-25T09:18:01.203Z,83.2
2017-09-25T09:19:01.207Z,82.43
2017-09-25T09:20:01.205Z,82.73
2017-09-25T09:21:02.324Z,82.43
2017-09-25T09:22:01.211Z,82.06
2017-09-25T09:23:01.205Z,81.43
2017-09-25T09:24:01.211Z,80.47
2017-09-25T09:25:01.209Z,79.51
2017-09-25T09:26:00.898Z,79.13
2017-09-25T09:27:01.222Z,79.03
2017-09-25T09:28:01.210Z,78.55
2017-09-25T09:29:01.211Z,78.84
2017-09-25T09:30:01.218Z,79.03
2017-09-25T09:31:01.212Z,78.64
2017-09-25T09:32:01.214Z,78.17
2017-09-25T09:33:00.906Z,78.07
2017-09-25T09:34:00.905Z,78.74
2017-09-25T09:35:01.234Z,78.64
2017-09-25T09:36:06.217Z,79.03
2017-09-25T09:37:00.903Z,80.18
2017-09-25T09:38:01.219Z,81.04
2017-09-25T09:39:01.219Z,81.52
2017-09-25T09:40:01.213Z,82.09
2017-09-25T09:41:01.231Z,80.18
2017-09-25T09:42:00.917Z,79.89
2017-09-25T09:43:00.913Z,79.41
2017-09-25T09:44:00.914Z,79.03
2017-09-25T09:45:01.223Z,79.22
2017-09-25T09:46:00.910Z,78.55
2017-09-25T09:47:01.221Z,79.22
2017-09-25T09:48:01.221Z,78.64
2017-09-25T09:49:00.918Z,78.4
2017-09-25T09:50:00.914Z,78.49
2017-09-25T09:51:01.225Z,77.82
2017-09-25T09:52:01.225Z,78.02
2017-09-25T09:53:01.243Z,77.53
2017-09-25T09:54:00.922Z,78.02
2017-09-25T09:55:00.921Z,77.86
2017-09-25T09:56:00.921Z,78.63
2017-09-25T09:57:01.239Z,77.09
2017-09-25T09:58:01.231Z,76.23
2017-09-25T09:59:01.236Z,75.37
2017-09-25T10:00:01.236Z,74.98
2017-09-25T10:01:01.235Z,75.43
2017-09-25T10:02:01.243Z,75.56
2017-09-25T10:03:00.935Z,75.46
2017-09-25T10:04:01.241Z,75.27
2017-09-25T10:05:01.241Z,74.6
2017-09-25T10:06:01.244Z,75.56
2017-09-25T10:07:01.262Z,74.89
2017-09-25T10:08:01.242Z,74.98
2017-09-25T10:09:01.246Z,75.12
2017-09-25T10:10:01.249Z,74.26
2017-09-25T10:11:01.252Z,74.06
2017-09-25T10:12:00.942Z,73.3
2017-09-25T10:13:01.251Z,72.85
2017-09-25T10:14:01.269Z,71.98
2017-09-25T10:15:01.263Z,71.98
2017-09-25T10:16:01.257Z,71.31
2017-09-25T10:17:01.278Z,71.61
2017-09-25T10:18:01.261Z,71.7
2017-09-25T10:19:01.261Z,71.61
2017-09-25T10:20:01.271Z,71.61
2017-09-25T10:21:01.275Z,71.61
2017-09-25T10:22:01.277Z,71.51
2017-09-25T10:23:01.280Z,72.08
2017-09-25T10:24:01.275Z,72.28
2017-09-25T10:25:01.275Z,71.8
2017-09-25T10:26:01.281Z,71.51
2017-09-25T10:27:01.278Z,71.25
2017-09-25T10:28:00.971Z,71.55
2017-09-25T10:29:00.977Z,71.55
2017-09-25T10:30:01.285Z,72.18
2017-09-25T10:31:01.285Z,71.7
2017-09-25T10:32:01.297Z,71.51
2017-09-25T10:33:01.304Z,72.66
2017-09-25T10:34:01.286Z,72.56
2017-09-25T10:35:00.992Z,72.28
2017-09-25T10:36:01.302Z,72.75
2017-09-25T10:37:00.995Z,71.7
2017-09-25T10:38:01.303Z,71.51
2017-09-25T10:39:01.306Z,71.98
2017-09-25T10:40:01.305Z,71.55
2017-09-25T10:41:00.994Z,71.06
2017-09-25T10:42:01.316Z,69.91
2017-09-25T10:43:01.312Z,69.34
2017-09-25T10:44:01.001Z,68.76
2017-09-25T10:45:01.003Z,68.37
2017-09-25T10:46:01.313Z,68.47
2017-09-25T10:47:01.012Z,68.08
2017-09-25T10:48:01.318Z,67.61
2017-09-25T10:49:01.359Z,68.08
2017-09-25T10:50:01.331Z,67.9
2017-09-25T10:51:01.020Z,67.99
2017-09-25T10:52:01.331Z,67.7
2017-09-25T10:53:01.330Z,67.54
2017-09-25T10:54:01.025Z,67.93
2017-09-25T10:55:01.334Z,67.54
2017-09-25T10:56:01.335Z,66.39
2017-09-25T10:57:01.340Z,66.58
2017-09-25T10:58:01.340Z,66.68
2017-09-25T10:59:01.343Z,67.16
2017-09-25T11:00:01.347Z,67.07
2017-09-25T11:01:01.348Z,67.25
2017-09-25T11:02:01.350Z,66.77
2017-09-25T11:03:01.043Z,67.16
2017-09-25T11:04:01.048Z,66.77
2017-09-25T11:05:01.365Z,66.1
2017-09-25T11:06:01.361Z,65.72
2017-09-25T11:07:01.362Z,65.72
2017-09-25T11:08:01.058Z,66.49
2017-09-25T11:09:01.057Z,67.16
2017-09-25T11:10:01.061Z,65.62
2017-09-25T11:11:01.065Z,64.6
2017-09-25T11:12:01.374Z,65.37
2017-09-25T11:13:01.381Z,64.5
2017-09-25T11:14:01.383Z,65.17
2017-09-25T11:15:01.073Z,65.66
2017-09-25T11:16:01.072Z,64.79
2017-09-25T11:17:01.079Z,63.25
2017-09-25T11:18:01.388Z,63.83
2017-09-25T11:19:01.391Z,64.5
2017-09-25T11:20:01.390Z,64.89
2017-09-25T11:21:01.398Z,64.69
2017-09-25T11:22:01.088Z,64.98
2017-09-25T11:23:01.092Z,64.22
2017-09-25T11:24:01.403Z,64.12
2017-09-25T11:25:01.404Z,64.15
2017-09-25T11:26:01.408Z,64.25
2017-09-25T11:27:01.410Z,63.48
2017-09-25T11:28:01.411Z,63.76
2017-09-25T11:29:01.105Z,62.9
2017-09-25T11:30:01.419Z,64.05
2017-09-25T11:31:01.119Z,63.09
2017-09-25T11:32:01.421Z,63.28
2017-09-25T11:33:01.425Z,62.9
2017-09-25T11:34:01.425Z,63.48
2017-09-25T11:35:01.121Z,62.51
2017-09-25T11:36:01.437Z,62.32
2017-09-25T11:37:03.293Z,62.8
2017-09-25T11:38:01.441Z,62.41
2017-09-25T11:39:01.439Z,62.13
2017-09-25T11:40:01.449Z,61.94
2017-09-25T11:41:01.450Z,62.32
2017-09-25T11:42:01.460Z,62.9
2017-09-25T11:43:01.138Z,62.13
2017-09-25T11:44:01.456Z,61.55
2017-09-25T11:45:01.465Z,61.46
2017-09-25T11:46:01.151Z,61.29
2017-09-25T11:47:01.464Z,61
2017-09-25T11:48:01.463Z,60.62
2017-09-25T11:49:01.154Z,59.94
2017-09-25T11:50:01.471Z,59.66
2017-09-25T11:51:01.536Z,59.56
2017-09-25T11:52:01.486Z,59.49
2017-09-25T11:53:01.476Z,59.49
2017-09-25T11:54:01.505Z,59.49
2017-09-25T11:55:01.484Z,58.72
2017-09-25T11:56:01.503Z,58.34
2017-09-25T11:57:01.508Z,58.05
2017-09-25T11:58:01.506Z,58.63
2017-09-25T11:59:01.186Z,58.24
2017-09-25T12:00:01.506Z,58.31
2017-09-25T12:01:01.511Z,58.92
2017-09-25T12:02:01.507Z,57.95
2017-09-25T12:03:01.507Z,57.67
2017-09-25T12:04:01.216Z,57.57
2017-09-25T12:05:01.528Z,58.34
2017-09-25T12:06:01.529Z,58.34
2017-09-25T12:07:01.531Z,58.34
2017-09-25T12:08:01.534Z,59.04
2017-09-25T12:09:01.221Z,57.89
2017-09-25T12:10:01.224Z,56.63
2017-09-25T12:11:01.246Z,56.73
2017-09-25T12:12:01.238Z,56.57
2017-09-25T12:13:01.545Z,57.5
2017-09-25T12:14:01.244Z,56.18
2017-09-25T12:15:01.240Z,55.87
2017-09-25T12:16:01.562Z,55.77
2017-09-25T12:17:01.248Z,57.5
2017-09-25T12:18:01.569Z,58.37
2017-09-25T12:19:01.252Z,57.21
2017-09-25T12:20:01.260Z,55.77
2017-09-25T12:21:01.574Z,57.02
2017-09-25T12:22:01.572Z,56.44
2017-09-25T12:23:02.378Z,55.48
2017-09-25T12:24:01.578Z,55
2017-09-25T12:25:01.284Z,53.96
2017-09-25T12:26:01.603Z,54.16
2017-09-25T12:27:01.590Z,53.77
2017-09-25T12:28:01.289Z,53.39
2017-09-25T12:29:01.599Z,53.39
2017-09-25T12:30:01.609Z,53.29
2017-09-25T12:31:01.604Z,53.48
2017-09-25T12:32:01.308Z,53.19
2017-09-25T12:33:01.617Z,55.51
2017-09-25T12:34:01.622Z,55.31
2017-09-25T12:35:01.309Z,55.6
2017-09-25T12:36:01.636Z,55.79
2017-09-25T12:37:01.624Z,56.27
2017-09-25T12:38:01.886Z,55.51
2017-09-25T12:39:01.639Z,55.31
2017-09-25T12:40:01.330Z,55.02
2017-09-25T12:41:01.641Z,55.02
2017-09-25T12:42:01.648Z,56.76
2017-09-25T12:43:01.339Z,54.83
2017-09-25T12:44:01.648Z,54.44
2017-09-25T12:45:01.651Z,54.8
2017-09-25T12:46:01.657Z,55.09
2017-09-25T12:47:01.665Z,55.57
2017-09-25T12:48:01.662Z,55.57
2017-09-25T12:49:01.676Z,55.77
2017-09-25T12:50:01.677Z,56.22
2017-09-25T12:51:01.365Z,57.47
2017-09-25T12:52:01.675Z,57.5
2017-09-25T12:53:01.679Z,56.73